CheckWX is a tool to help pilots better visualize weather data.  It is not intended as a substitute for an official pre-flight weather briefing.

21:02:50 UTC

KHLR METAR
Hood AAF Airport
Fort Hood(Killeen), Texas, USA
Current

1 hour ago

KHLR 231958Z AUTO 15016G25KT 10SM FEW045 SCT055 32/21 A2990 RMK AO2 PK WND 15027/40 SLP112 T03200207
Observed
May-23 @ 19:58 UTC
Wind
  • 150° at 16 KTS
  • Gusting to 25 KTS
Visibility
10 SM
Flight Rules
VFR
Cloud Levels
  • Few at 4,500' AGL
  • Scattered at 5,500' AGL
Temperature
32°C / 90°F
Dewpoint
21°C / 70°F
Heat Index
36°C / 96°F
Humidity
52%
Altimeter
29.9" Hg
Pressure
1012.52 hPa
Previous

2 hours ago

KHLR 231858Z AUTO 15015G23KT 10SM SCT044 BKN300 31/21 A2992 RMK AO2 SLP119 T03100206
Observed
May-23 @ 18:58 UTC
Wind
  • 150° at 15 KTS
  • Gusting to 23 KTS
Visibility
10 SM
Flight Rules
VFR
Cloud Levels
  • Scattered at 4,400' AGL
  • Broken at 30,000' AGL
Temperature
31°C / 88°F
Dewpoint
21°C / 70°F
Heat Index
34°C / 93°F
Humidity
55%
Altimeter
29.92" Hg
Pressure
1013.22 hPa
Previous

3 hours ago

KHLR 231758Z AUTO 17016G24KT 9SM BKN040 BKN048 30/20 A2993 RMK AO2 PK WND 15027/29 SLP123 T03010203 10305 20238 50000
Observed
May-23 @ 17:58 UTC
Wind
  • 170° at 16 KTS
  • Gusting to 24 KTS
Visibility
9 SM
Flight Rules
VFR
Cloud Levels
  • Broken at 4,000' AGL
  • Broken at 4,800' AGL
Temperature
30°C / 86°F
Dewpoint
20°C / 68°F
Heat Index
32°C / 89°F
Humidity
55%
Altimeter
29.93" Hg
Pressure
1013.52 hPa